sensor_id;sensor_type;location;lat;lon;timestamp;P1;durP1;ratioP1;P2;durP2;ratioP2
74679;SDS011;63211;48.548;2.704;2022-10-31T00:00:42;3.45;;;1.80;;
74679;SDS011;63211;48.548;2.704;2022-10-31T00:03:09;3.60;;;1.92;;
74679;SDS011;63211;48.548;2.704;2022-10-31T00:05:35;4.90;;;2.13;;
74679;SDS011;63211;48.548;2.704;2022-10-31T00:08:07;4.80;;;1.92;;
74679;SDS011;63211;48.548;2.704;2022-10-31T00:10:36;2.53;;;1.50;;
74679;SDS011;63211;48.548;2.704;2022-10-31T00:13:03;3.10;;;1.65;;
74679;SDS011;63211;48.548;2.704;2022-10-31T00:15:31;3.45;;;1.50;;
74679;SDS011;63211;48.548;2.704;2022-10-31T00:17:58;3.47;;;1.70;;
74679;SDS011;63211;48.548;2.704;2022-10-31T00:20:25;2.88;;;1.60;;
74679;SDS011;63211;48.548;2.704;2022-10-31T00:22:52;5.20;;;1.67;;
74679;SDS011;63211;48.548;2.704;2022-10-31T00:25:20;3.05;;;1.58;;
74679;SDS011;63211;48.548;2.704;2022-10-31T00:27:46;4.63;;;1.70;;
74679;SDS011;63211;48.548;2.704;2022-10-31T00:30:13;2.90;;;1.42;;
74679;SDS011;63211;48.548;2.704;2022-10-31T00:32:39;3.17;;;1.60;;
74679;SDS011;63211;48.548;2.704;2022-10-31T00:35:06;3.47;;;1.40;;
74679;SDS011;63211;48.548;2.704;2022-10-31T00:37:33;3.15;;;1.60;;
74679;SDS011;63211;48.548;2.704;2022-10-31T00:39:59;2.30;;;1.33;;
74679;SDS011;63211;48.548;2.704;2022-10-31T00:42:27;2.63;;;1.60;;
74679;SDS011;63211;48.548;2.704;2022-10-31T00:44:54;4.50;;;1.67;;
74679;SDS011;63211;48.548;2.704;2022-10-31T00:47:21;3.50;;;1.52;;
74679;SDS011;63211;48.548;2.704;2022-10-31T00:49:47;2.38;;;1.30;;
74679;SDS011;63211;48.548;2.704;2022-10-31T00:52:14;2.67;;;1.50;;
74679;SDS011;63211;48.548;2.704;2022-10-31T00:54:40;3.33;;;1.52;;
74679;SDS011;63211;48.548;2.704;2022-10-31T00:57:07;2.85;;;1.40;;
74679;SDS011;63211;48.548;2.704;2022-10-31T00:59:35;2.38;;;1.30;;
74679;SDS011;63211;48.548;2.704;2022-10-31T01:02:01;2.83;;;1.33;;
74679;SDS011;63211;48.548;2.704;2022-10-31T01:04:28;3.22;;;1.83;;
74679;SDS011;63211;48.548;2.704;2022-10-31T01:06:55;2.50;;;1.50;;
74679;SDS011;63211;48.548;2.704;2022-10-31T01:09:21;2.10;;;1.33;;
74679;SDS011;63211;48.548;2.704;2022-10-31T01:11:48;3.13;;;1.33;;
74679;SDS011;63211;48.548;2.704;2022-10-31T01:14:14;2.30;;;1.42;;
74679;SDS011;63211;48.548;2.704;2022-10-31T01:16:42;3.60;;;1.50;;
74679;SDS011;63211;48.548;2.704;2022-10-31T01:19:09;2.55;;;1.30;;
74679;SDS011;63211;48.548;2.704;2022-10-31T01:21:36;2.42;;;1.30;;
74679;SDS011;63211;48.548;2.704;2022-10-31T01:24:02;3.03;;;1.25;;
74679;SDS011;63211;48.548;2.704;2022-10-31T01:26:30;2.75;;;1.20;;
74679;SDS011;63211;48.548;2.704;2022-10-31T01:28:59;2.17;;;1.30;;
74679;SDS011;63211;48.548;2.704;2022-10-31T01:31:27;2.17;;;1.10;;
74679;SDS011;63211;48.548;2.704;2022-10-31T01:33:56;2.75;;;1.40;;
74679;SDS011;63211;48.548;2.704;2022-10-31T01:36:24;2.22;;;1.50;;
74679;SDS011;63211;48.548;2.704;2022-10-31T01:38:52;2.83;;;1.50;;
74679;SDS011;63211;48.548;2.704;2022-10-31T01:41:22;2.60;;;1.42;;
74679;SDS011;63211;48.548;2.704;2022-10-31T01:43:52;3.28;;;1.90;;
74679;SDS011;63211;48.548;2.704;2022-10-31T01:46:21;1.63;;;1.13;;
74679;SDS011;63211;48.548;2.704;2022-10-31T01:48:51;4.03;;;1.25;;
74679;SDS011;63211;48.548;2.704;2022-10-31T01:51:22;2.20;;;1.00;;
74679;SDS011;63211;48.548;2.704;2022-10-31T01:53:52;1.33;;;0.85;;
74679;SDS011;63211;48.548;2.704;2022-10-31T01:56:21;2.63;;;1.30;;
74679;SDS011;63211;48.548;2.704;2022-10-31T01:58:48;2.03;;;0.95;;
74679;SDS011;63211;48.548;2.704;2022-10-31T02:01:15;1.73;;;1.10;;
74679;SDS011;63211;48.548;2.704;2022-10-31T02:03:42;2.17;;;1.30;;
74679;SDS011;63211;48.548;2.704;2022-10-31T02:06:13;2.28;;;1.35;;
74679;SDS011;63211;48.548;2.704;2022-10-31T02:08:49;2.13;;;1.10;;
74679;SDS011;63211;48.548;2.704;2022-10-31T02:11:17;2.58;;;1.20;;
74679;SDS011;63211;48.548;2.704;2022-10-31T02:13:44;2.13;;;1.10;;
74679;SDS011;63211;48.548;2.704;2022-10-31T02:16:10;4.22;;;1.42;;
74679;SDS011;63211;48.548;2.704;2022-10-31T02:18:37;2.15;;;1.10;;
74679;SDS011;63211;48.548;2.704;2022-10-31T02:21:06;2.20;;;1.10;;
74679;SDS011;63211;48.548;2.704;2022-10-31T02:23:48;2.22;;;0.95;;
74679;SDS011;63211;48.548;2.704;2022-10-31T02:29:24;1.70;;;1.13;;
74679;SDS011;63211;48.548;2.704;2022-10-31T02:32:27;2.40;;;1.30;;
74679;SDS011;63211;48.548;2.704;2022-10-31T02:34:59;1.98;;;0.98;;
74679;SDS011;63211;48.548;2.704;2022-10-31T02:37:34;1.50;;;0.73;;
74679;SDS011;63211;48.548;2.704;2022-10-31T02:40:07;1.85;;;1.10;;
74679;SDS011;63211;48.548;2.704;2022-10-31T02:42:43;2.97;;;1.20;;
74679;SDS011;63211;48.548;2.704;2022-10-31T02:45:18;1.70;;;0.95;;
74679;SDS011;63211;48.548;2.704;2022-10-31T02:47:51;1.92;;;1.30;;
74679;SDS011;63211;48.548;2.704;2022-10-31T02:50:21;2.47;;;1.25;;
74679;SDS011;63211;48.548;2.704;2022-10-31T02:58:22;2.92;;;1.05;;
74679;SDS011;63211;48.548;2.704;2022-10-31T03:00:59;1.73;;;0.90;;
74679;SDS011;63211;48.548;2.704;2022-10-31T03:03:39;1.98;;;1.15;;
74679;SDS011;63211;48.548;2.704;2022-10-31T03:06:17;2.10;;;1.20;;
74679;SDS011;63211;48.548;2.704;2022-10-31T03:08:54;2.17;;;0.80;;
74679;SDS011;63211;48.548;2.704;2022-10-31T03:11:28;1.90;;;1.10;;
74679;SDS011;63211;48.548;2.704;2022-10-31T03:14:04;2.47;;;1.33;;
74679;SDS011;63211;48.548;2.704;2022-10-31T03:16:39;1.80;;;1.02;;
74679;SDS011;63211;48.548;2.704;2022-10-31T03:19:13;2.00;;;1.20;;
74679;SDS011;63211;48.548;2.704;2022-10-31T03:21:44;2.13;;;1.00;;
74679;SDS011;63211;48.548;2.704;2022-10-31T03:24:13;2.58;;;1.23;;
74679;SDS011;63211;48.548;2.704;2022-10-31T03:26:41;2.40;;;1.08;;
74679;SDS011;63211;48.548;2.704;2022-10-31T03:29:11;2.13;;;1.23;;
74679;SDS011;63211;48.548;2.704;2022-10-31T03:31:42;2.72;;;1.13;;
74679;SDS011;63211;48.548;2.704;2022-10-31T03:34:14;2.33;;;0.88;;
74679;SDS011;63211;48.548;2.704;2022-10-31T03:36:43;1.95;;;1.00;;
74679;SDS011;63211;48.548;2.704;2022-10-31T03:39:13;2.45;;;1.02;;
74679;SDS011;63211;48.548;2.704;2022-10-31T03:44:12;2.03;;;1.15;;
74679;SDS011;63211;48.548;2.704;2022-10-31T03:46:41;1.77;;;0.95;;
74679;SDS011;63211;48.548;2.704;2022-10-31T03:49:09;1.55;;;1.15;;
74679;SDS011;63211;48.548;2.704;2022-10-31T03:51:38;2.30;;;1.15;;
74679;SDS011;63211;48.548;2.704;2022-10-31T03:54:10;4.10;;;1.20;;
74679;SDS011;63211;48.548;2.704;2022-10-31T03:56:41;2.63;;;1.05;;
74679;SDS011;63211;48.548;2.704;2022-10-31T03:59:14;2.35;;;1.20;;
74679;SDS011;63211;48.548;2.704;2022-10-31T04:01:44;1.85;;;1.15;;
74679;SDS011;63211;48.548;2.704;2022-10-31T04:04:15;1.83;;;0.85;;
74679;SDS011;63211;48.548;2.704;2022-10-31T04:06:44;1.67;;;1.10;;
74679;SDS011;63211;48.548;2.704;2022-10-31T04:09:13;2.42;;;1.10;;
74679;SDS011;63211;48.548;2.704;2022-10-31T04:11:42;2.53;;;1.13;;
74679;SDS011;63211;48.548;2.704;2022-10-31T04:14:14;2.17;;;1.10;;
74679;SDS011;63211;48.548;2.704;2022-10-31T04:16:42;3.97;;;1.17;;
74679;SDS011;63211;48.548;2.704;2022-10-31T04:19:10;2.10;;;0.82;;
74679;SDS011;63211;48.548;2.704;2022-10-31T04:21:37;1.88;;;0.80;;
74679;SDS011;63211;48.548;2.704;2022-10-31T04:24:05;1.75;;;0.93;;
74679;SDS011;63211;48.548;2.704;2022-10-31T04:26:32;1.70;;;0.82;;
74679;SDS011;63211;48.548;2.704;2022-10-31T04:28:59;2.03;;;0.95;;
74679;SDS011;63211;48.548;2.704;2022-10-31T04:31:25;1.40;;;0.85;;
74679;SDS011;63211;48.548;2.704;2022-10-31T04:33:52;1.52;;;0.95;;
74679;SDS011;63211;48.548;2.704;2022-10-31T04:36:19;1.58;;;0.95;;
74679;SDS011;63211;48.548;2.704;2022-10-31T04:38:45;1.30;;;0.90;;
74679;SDS011;63211;48.548;2.704;2022-10-31T04:41:13;1.38;;;0.70;;
74679;SDS011;63211;48.548;2.704;2022-10-31T04:43:40;2.10;;;1.08;;
74679;SDS011;63211;48.548;2.704;2022-10-31T04:46:06;3.70;;;1.02;;
74679;SDS011;63211;48.548;2.704;2022-10-31T04:48:33;2.10;;;0.98;;
74679;SDS011;63211;48.548;2.704;2022-10-31T04:51:00;2.75;;;1.00;;
74679;SDS011;63211;48.548;2.704;2022-10-31T04:53:27;2.58;;;1.17;;
74679;SDS011;63211;48.548;2.704;2022-10-31T04:55:54;1.92;;;1.15;;
74679;SDS011;63211;48.548;2.704;2022-10-31T04:58:22;2.40;;;1.30;;
74679;SDS011;63211;48.548;2.704;2022-10-31T05:00:51;1.95;;;1.20;;
74679;SDS011;63211;48.548;2.704;2022-10-31T05:03:17;1.80;;;0.95;;
74679;SDS011;63211;48.548;2.704;2022-10-31T05:05:44;1.55;;;0.95;;
74679;SDS011;63211;48.548;2.704;2022-10-31T05:08:11;1.63;;;1.08;;
74679;SDS011;63211;48.548;2.704;2022-10-31T05:10:37;2.28;;;1.15;;
74679;SDS011;63211;48.548;2.704;2022-10-31T05:13:04;1.60;;;0.98;;
74679;SDS011;63211;48.548;2.704;2022-10-31T05:15:32;2.13;;;1.20;;
74679;SDS011;63211;48.548;2.704;2022-10-31T05:17:59;1.92;;;0.90;;
74679;SDS011;63211;48.548;2.704;2022-10-31T05:20:26;2.05;;;1.00;;
74679;SDS011;63211;48.548;2.704;2022-10-31T05:22:55;1.73;;;0.90;;
74679;SDS011;63211;48.548;2.704;2022-10-31T05:25:23;2.75;;;1.13;;
74679;SDS011;63211;48.548;2.704;2022-10-31T05:27:51;2.08;;;1.13;;
74679;SDS011;63211;48.548;2.704;2022-10-31T05:30:20;2.83;;;0.93;;
74679;SDS011;63211;48.548;2.704;2022-10-31T05:32:49;2.78;;;1.10;;
74679;SDS011;63211;48.548;2.704;2022-10-31T05:35:17;2.17;;;1.05;;
74679;SDS011;63211;48.548;2.704;2022-10-31T05:37:47;1.48;;;0.85;;
74679;SDS011;63211;48.548;2.704;2022-10-31T05:40:14;2.10;;;1.13;;
74679;SDS011;63211;48.548;2.704;2022-10-31T05:42:42;1.73;;;1.00;;
74679;SDS011;63211;48.548;2.704;2022-10-31T05:45:09;2.20;;;1.00;;
74679;SDS011;63211;48.548;2.704;2022-10-31T05:47:38;1.85;;;0.88;;
74679;SDS011;63211;48.548;2.704;2022-10-31T05:50:07;1.75;;;0.95;;
74679;SDS011;63211;48.548;2.704;2022-10-31T05:52:34;1.88;;;1.10;;
74679;SDS011;63211;48.548;2.704;2022-10-31T05:55:01;2.90;;;1.00;;
74679;SDS011;63211;48.548;2.704;2022-10-31T05:57:28;1.65;;;0.90;;
74679;SDS011;63211;48.548;2.704;2022-10-31T05:59:55;1.60;;;1.00;;
74679;SDS011;63211;48.548;2.704;2022-10-31T06:02:22;2.10;;;0.90;;
74679;SDS011;63211;48.548;2.704;2022-10-31T06:04:48;2.50;;;1.15;;
74679;SDS011;63211;48.548;2.704;2022-10-31T06:07:16;1.23;;;0.90;;
74679;SDS011;63211;48.548;2.704;2022-10-31T06:09:43;1.90;;;0.82;;
74679;SDS011;63211;48.548;2.704;2022-10-31T06:12:09;3.00;;;1.10;;
74679;SDS011;63211;48.548;2.704;2022-10-31T06:14:36;1.98;;;1.00;;
74679;SDS011;63211;48.548;2.704;2022-10-31T06:17:02;2.53;;;1.00;;
74679;SDS011;63211;48.548;2.704;2022-10-31T06:19:29;1.75;;;0.80;;
74679;SDS011;63211;48.548;2.704;2022-10-31T06:21:56;1.67;;;0.95;;
74679;SDS011;63211;48.548;2.704;2022-10-31T06:24:23;1.67;;;1.05;;
74679;SDS011;63211;48.548;2.704;2022-10-31T06:26:50;2.72;;;1.17;;
74679;SDS011;63211;48.548;2.704;2022-10-31T06:29:17;1.88;;;1.00;;
74679;SDS011;63211;48.548;2.704;2022-10-31T06:31:43;2.13;;;1.00;;
74679;SDS011;63211;48.548;2.704;2022-10-31T06:34:10;4.78;;;1.08;;
74679;SDS011;63211;48.548;2.704;2022-10-31T06:36:36;4.82;;;1.10;;
74679;SDS011;63211;48.548;2.704;2022-10-31T06:39:03;1.88;;;0.90;;
74679;SDS011;63211;48.548;2.704;2022-10-31T06:41:31;5.78;;;1.30;;
74679;SDS011;63211;48.548;2.704;2022-10-31T06:43:57;2.15;;;0.98;;
74679;SDS011;63211;48.548;2.704;2022-10-31T06:46:24;2.88;;;1.17;;
74679;SDS011;63211;48.548;2.704;2022-10-31T06:48:51;2.97;;;1.27;;
74679;SDS011;63211;48.548;2.704;2022-10-31T06:51:17;3.88;;;1.40;;
74679;SDS011;63211;48.548;2.704;2022-10-31T06:53:44;2.90;;;1.20;;
74679;SDS011;63211;48.548;2.704;2022-10-31T06:56:10;3.13;;;1.10;;
74679;SDS011;63211;48.548;2.704;2022-10-31T06:58:38;2.90;;;1.23;;
74679;SDS011;63211;48.548;2.704;2022-10-31T07:01:05;3.05;;;1.40;;
74679;SDS011;63211;48.548;2.704;2022-10-31T07:03:32;2.97;;;1.27;;
74679;SDS011;63211;48.548;2.704;2022-10-31T07:05:58;3.17;;;1.17;;
74679;SDS011;63211;48.548;2.704;2022-10-31T07:08:25;4.57;;;1.70;;
74679;SDS011;63211;48.548;2.704;2022-10-31T07:10:52;2.95;;;1.52;;
74679;SDS011;63211;48.548;2.704;2022-10-31T07:13:21;2.65;;;1.35;;
74679;SDS011;63211;48.548;2.704;2022-10-31T07:15:52;2.00;;;1.15;;
74679;SDS011;63211;48.548;2.704;2022-10-31T07:18:20;3.00;;;1.15;;
74679;SDS011;63211;48.548;2.704;2022-10-31T07:20:47;2.90;;;1.20;;
74679;SDS011;63211;48.548;2.704;2022-10-31T07:23:14;3.22;;;1.42;;
74679;SDS011;63211;48.548;2.704;2022-10-31T07:25:41;2.10;;;1.20;;
74679;SDS011;63211;48.548;2.704;2022-10-31T07:28:08;3.00;;;1.50;;
74679;SDS011;63211;48.548;2.704;2022-10-31T07:30:36;2.58;;;1.40;;
74679;SDS011;63211;48.548;2.704;2022-10-31T07:33:04;5.43;;;1.42;;
74679;SDS011;63211;48.548;2.704;2022-10-31T07:35:32;5.63;;;1.25;;
74679;SDS011;63211;48.548;2.704;2022-10-31T07:38:06;4.70;;;1.88;;
74679;SDS011;63211;48.548;2.704;2022-10-31T07:40:33;2.63;;;1.48;;
74679;SDS011;63211;48.548;2.704;2022-10-31T07:43:00;2.47;;;1.27;;
74679;SDS011;63211;48.548;2.704;2022-10-31T07:45:26;2.42;;;1.27;;
74679;SDS011;63211;48.548;2.704;2022-10-31T07:47:53;2.67;;;1.40;;
74679;SDS011;63211;48.548;2.704;2022-10-31T07:50:22;2.90;;;1.25;;
74679;SDS011;63211;48.548;2.704;2022-10-31T07:52:57;5.15;;;1.50;;
74679;SDS011;63211;48.548;2.704;2022-10-31T07:55:25;2.55;;;1.05;;
74679;SDS011;63211;48.548;2.704;2022-10-31T07:57:55;2.67;;;1.40;;
74679;SDS011;63211;48.548;2.704;2022-10-31T08:00:22;2.53;;;1.17;;
74679;SDS011;63211;48.548;2.704;2022-10-31T08:02:55;1.98;;;1.05;;
74679;SDS011;63211;48.548;2.704;2022-10-31T08:05:24;1.70;;;0.95;;
74679;SDS011;63211;48.548;2.704;2022-10-31T08:07:50;7.13;;;1.20;;
74679;SDS011;63211;48.548;2.704;2022-10-31T08:10:17;3.00;;;1.38;;
74679;SDS011;63211;48.548;2.704;2022-10-31T08:12:44;2.80;;;1.40;;
74679;SDS011;63211;48.548;2.704;2022-10-31T08:15:10;3.22;;;1.17;;
74679;SDS011;63211;48.548;2.704;2022-10-31T08:17:37;2.63;;;1.30;;
74679;SDS011;63211;48.548;2.704;2022-10-31T08:20:05;3.25;;;1.30;;
74679;SDS011;63211;48.548;2.704;2022-10-31T08:22:33;4.20;;;1.40;;
74679;SDS011;63211;48.548;2.704;2022-10-31T08:25:00;2.25;;;1.35;;
74679;SDS011;63211;48.548;2.704;2022-10-31T08:27:26;2.20;;;1.23;;
74679;SDS011;63211;48.548;2.704;2022-10-31T08:29:53;2.25;;;1.00;;
74679;SDS011;63211;48.548;2.704;2022-10-31T08:32:20;3.42;;;1.35;;
74679;SDS011;63211;48.548;2.704;2022-10-31T08:34:46;3.40;;;1.42;;
74679;SDS011;63211;48.548;2.704;2022-10-31T08:37:13;2.38;;;1.48;;
74679;SDS011;63211;48.548;2.704;2022-10-31T08:39:45;2.40;;;1.10;;
74679;SDS011;63211;48.548;2.704;2022-10-31T08:42:11;3.38;;;1.40;;
74679;SDS011;63211;48.548;2.704;2022-10-31T08:44:38;2.50;;;1.55;;
74679;SDS011;63211;48.548;2.704;2022-10-31T08:47:05;3.22;;;1.60;;
74679;SDS011;63211;48.548;2.704;2022-10-31T08:49:31;3.22;;;1.50;;
74679;SDS011;63211;48.548;2.704;2022-10-31T08:51:58;2.60;;;1.15;;
74679;SDS011;63211;48.548;2.704;2022-10-31T08:54:24;1.83;;;1.08;;
74679;SDS011;63211;48.548;2.704;2022-10-31T08:56:54;3.20;;;1.50;;
74679;SDS011;63211;48.548;2.704;2022-10-31T08:59:21;4.78;;;1.67;;
74679;SDS011;63211;48.548;2.704;2022-10-31T09:01:48;5.20;;;1.48;;
74679;SDS011;63211;48.548;2.704;2022-10-31T09:04:15;3.47;;;1.30;;
74679;SDS011;63211;48.548;2.704;2022-10-31T09:06:41;7.18;;;1.48;;
74679;SDS011;63211;48.548;2.704;2022-10-31T09:09:08;3.58;;;1.50;;
74679;SDS011;63211;48.548;2.704;2022-10-31T09:11:34;3.45;;;1.42;;
74679;SDS011;63211;48.548;2.704;2022-10-31T09:14:02;5.43;;;1.75;;
74679;SDS011;63211;48.548;2.704;2022-10-31T09:16:29;3.38;;;1.45;;
74679;SDS011;63211;48.548;2.704;2022-10-31T09:18:55;2.50;;;1.30;;
74679;SDS011;63211;48.548;2.704;2022-10-31T09:21:22;5.53;;;1.85;;
74679;SDS011;63211;48.548;2.704;2022-10-31T09:23:48;3.75;;;1.60;;
74679;SDS011;63211;48.548;2.704;2022-10-31T09:26:15;3.70;;;1.60;;
74679;SDS011;63211;48.548;2.704;2022-10-31T09:28:42;2.92;;;1.30;;
74679;SDS011;63211;48.548;2.704;2022-10-31T09:31:11;4.50;;;1.83;;
74679;SDS011;63211;48.548;2.704;2022-10-31T09:33:37;3.78;;;1.48;;
74679;SDS011;63211;48.548;2.704;2022-10-31T09:36:04;2.95;;;1.38;;
74679;SDS011;63211;48.548;2.704;2022-10-31T09:38:31;3.45;;;1.25;;
74679;SDS011;63211;48.548;2.704;2022-10-31T09:41:01;4.32;;;1.35;;
74679;SDS011;63211;48.548;2.704;2022-10-31T09:43:39;3.50;;;1.33;;
74679;SDS011;63211;48.548;2.704;2022-10-31T09:46:16;2.25;;;1.40;;
74679;SDS011;63211;48.548;2.704;2022-10-31T09:48:52;2.25;;;1.40;;
74679;SDS011;63211;48.548;2.704;2022-10-31T09:51:29;4.55;;;1.50;;
74679;SDS011;63211;48.548;2.704;2022-10-31T09:53:59;3.75;;;1.35;;
74679;SDS011;63211;48.548;2.704;2022-10-31T09:56:31;5.10;;;1.60;;
74679;SDS011;63211;48.548;2.704;2022-10-31T09:59:00;4.28;;;1.48;;
74679;SDS011;63211;48.548;2.704;2022-10-31T10:01:33;3.63;;;1.38;;
74679;SDS011;63211;48.548;2.704;2022-10-31T10:04:10;4.60;;;1.38;;
74679;SDS011;63211;48.548;2.704;2022-10-31T10:06:54;5.07;;;1.60;;
74679;SDS011;63211;48.548;2.704;2022-10-31T10:09:22;6.55;;;1.65;;
74679;SDS011;63211;48.548;2.704;2022-10-31T10:11:53;6.55;;;1.50;;
74679;SDS011;63211;48.548;2.704;2022-10-31T10:14:31;2.78;;;1.05;;
74679;SDS011;63211;48.548;2.704;2022-10-31T10:17:11;4.88;;;1.67;;
74679;SDS011;63211;48.548;2.704;2022-10-31T10:19:48;5.43;;;1.65;;
74679;SDS011;63211;48.548;2.704;2022-10-31T10:22:27;3.22;;;1.52;;
74679;SDS011;63211;48.548;2.704;2022-10-31T10:25:10;7.20;;;1.60;;
74679;SDS011;63211;48.548;2.704;2022-10-31T10:27:49;2.38;;;1.38;;
74679;SDS011;63211;48.548;2.704;2022-10-31T10:30:23;6.00;;;1.73;;
74679;SDS011;63211;48.548;2.704;2022-10-31T10:32:58;2.97;;;1.30;;
74679;SDS011;63211;48.548;2.704;2022-10-31T10:35:30;5.35;;;1.60;;
74679;SDS011;63211;48.548;2.704;2022-10-31T10:38:01;4.72;;;1.48;;
74679;SDS011;63211;48.548;2.704;2022-10-31T10:40:35;3.72;;;1.52;;
74679;SDS011;63211;48.548;2.704;2022-10-31T10:43:12;4.07;;;1.38;;
74679;SDS011;63211;48.548;2.704;2022-10-31T10:45:49;3.35;;;1.45;;
74679;SDS011;63211;48.548;2.704;2022-10-31T10:48:45;3.25;;;1.70;;
74679;SDS011;63211;48.548;2.704;2022-10-31T10:51:21;3.53;;;1.30;;
74679;SDS011;63211;48.548;2.704;2022-10-31T10:53:54;4.95;;;1.65;;
74679;SDS011;63211;48.548;2.704;2022-10-31T10:56:36;2.67;;;1.40;;
74679;SDS011;63211;48.548;2.704;2022-10-31T10:59:09;2.85;;;1.27;;
74679;SDS011;63211;48.548;2.704;2022-10-31T11:01:38;5.07;;;1.40;;
74679;SDS011;63211;48.548;2.704;2022-10-31T11:04:13;3.10;;;1.40;;
74679;SDS011;63211;48.548;2.704;2022-10-31T11:07:02;3.25;;;1.55;;
74679;SDS011;63211;48.548;2.704;2022-10-31T11:09:30;4.65;;;1.38;;
74679;SDS011;63211;48.548;2.704;2022-10-31T11:11:58;2.53;;;1.23;;
74679;SDS011;63211;48.548;2.704;2022-10-31T11:14:26;3.60;;;1.40;;
74679;SDS011;63211;48.548;2.704;2022-10-31T11:16:54;3.40;;;1.60;;
74679;SDS011;63211;48.548;2.704;2022-10-31T11:19:34;2.53;;;1.20;;
74679;SDS011;63211;48.548;2.704;2022-10-31T11:22:05;2.65;;;1.30;;
74679;SDS011;63211;48.548;2.704;2022-10-31T11:24:36;3.35;;;1.55;;
74679;SDS011;63211;48.548;2.704;2022-10-31T11:27:10;3.22;;;1.60;;
74679;SDS011;63211;48.548;2.704;2022-10-31T11:29:40;3.90;;;1.27;;
74679;SDS011;63211;48.548;2.704;2022-10-31T11:32:08;3.60;;;1.73;;
74679;SDS011;63211;48.548;2.704;2022-10-31T11:34:47;3.60;;;1.70;;
74679;SDS011;63211;48.548;2.704;2022-10-31T11:37:16;3.95;;;1.50;;
74679;SDS011;63211;48.548;2.704;2022-10-31T11:39:46;2.70;;;1.50;;
74679;SDS011;63211;48.548;2.704;2022-10-31T11:42:19;4.00;;;1.25;;
74679;SDS011;63211;48.548;2.704;2022-10-31T11:44:47;3.78;;;1.73;;
74679;SDS011;63211;48.548;2.704;2022-10-31T11:47:16;2.25;;;1.20;;
74679;SDS011;63211;48.548;2.704;2022-10-31T11:49:48;3.35;;;1.70;;
74679;SDS011;63211;48.548;2.704;2022-10-31T11:52:16;3.20;;;1.42;;
74679;SDS011;63211;48.548;2.704;2022-10-31T11:54:46;3.47;;;1.80;;
74679;SDS011;63211;48.548;2.704;2022-10-31T12:00:19;10.60;;;1.70;;
74679;SDS011;63211;48.548;2.704;2022-10-31T12:02:47;3.10;;;1.30;;
74679;SDS011;63211;48.548;2.704;2022-10-31T12:05:18;4.70;;;1.70;;
74679;SDS011;63211;48.548;2.704;2022-10-31T12:07:50;5.13;;;1.92;;
74679;SDS011;63211;48.548;2.704;2022-10-31T12:10:16;3.35;;;1.70;;
74679;SDS011;63211;48.548;2.704;2022-10-31T12:12:53;6.57;;;1.95;;
74679;SDS011;63211;48.548;2.704;2022-10-31T12:15:30;3.08;;;1.40;;
74679;SDS011;63211;48.548;2.704;2022-10-31T12:20:54;3.58;;;1.80;;
74679;SDS011;63211;48.548;2.704;2022-10-31T12:23:33;2.75;;;1.42;;
74679;SDS011;63211;48.548;2.704;2022-10-31T12:26:11;2.30;;;1.40;;
74679;SDS011;63211;48.548;2.704;2022-10-31T12:28:51;2.90;;;1.60;;
74679;SDS011;63211;48.548;2.704;2022-10-31T12:31:42;3.85;;;1.60;;
74679;SDS011;63211;48.548;2.704;2022-10-31T12:34:33;2.97;;;1.42;;
74679;SDS011;63211;48.548;2.704;2022-10-31T12:37:13;3.15;;;1.65;;
74679;SDS011;63211;48.548;2.704;2022-10-31T12:39:50;3.42;;;1.55;;
74679;SDS011;63211;48.548;2.704;2022-10-31T12:42:30;2.40;;;1.58;;
74679;SDS011;63211;48.548;2.704;2022-10-31T12:45:12;2.78;;;1.42;;
74679;SDS011;63211;48.548;2.704;2022-10-31T12:47:58;3.45;;;2.10;;
74679;SDS011;63211;48.548;2.704;2022-10-31T12:50:39;3.83;;;1.65;;
74679;SDS011;63211;48.548;2.704;2022-10-31T12:53:26;3.30;;;1.83;;
74679;SDS011;63211;48.548;2.704;2022-10-31T12:56:05;3.38;;;2.10;;
74679;SDS011;63211;48.548;2.704;2022-10-31T12:58:43;2.90;;;1.60;;
74679;SDS011;63211;48.548;2.704;2022-10-31T13:01:23;6.18;;;2.08;;
74679;SDS011;63211;48.548;2.704;2022-10-31T13:03:55;3.08;;;1.80;;
74679;SDS011;63211;48.548;2.704;2022-10-31T13:06:29;5.20;;;2.13;;
74679;SDS011;63211;48.548;2.704;2022-10-31T13:09:01;3.22;;;1.63;;
74679;SDS011;63211;48.548;2.704;2022-10-31T13:11:32;3.55;;;1.73;;
74679;SDS011;63211;48.548;2.704;2022-10-31T13:14:02;2.83;;;1.40;;
74679;SDS011;63211;48.548;2.704;2022-10-31T13:16:34;3.50;;;1.63;;
74679;SDS011;63211;48.548;2.704;2022-10-31T13:19:05;5.18;;;2.55;;
74679;SDS011;63211;48.548;2.704;2022-10-31T13:21:38;3.63;;;1.80;;
74679;SDS011;63211;48.548;2.704;2022-10-31T13:24:16;3.83;;;1.98;;
74679;SDS011;63211;48.548;2.704;2022-10-31T13:26:47;5.25;;;2.00;;
74679;SDS011;63211;48.548;2.704;2022-10-31T13:29:18;3.95;;;2.10;;
74679;SDS011;63211;48.548;2.704;2022-10-31T13:31:46;4.70;;;1.85;;
74679;SDS011;63211;48.548;2.704;2022-10-31T13:34:18;5.55;;;1.90;;
74679;SDS011;63211;48.548;2.704;2022-10-31T13:36:54;3.63;;;2.28;;
74679;SDS011;63211;48.548;2.704;2022-10-31T13:39:31;5.70;;;2.67;;
74679;SDS011;63211;48.548;2.704;2022-10-31T13:42:09;2.95;;;2.05;;
74679;SDS011;63211;48.548;2.704;2022-10-31T13:44:40;3.95;;;2.10;;
74679;SDS011;63211;48.548;2.704;2022-10-31T13:47:20;5.07;;;2.00;;
74679;SDS011;63211;48.548;2.704;2022-10-31T13:49:49;3.20;;;2.10;;
74679;SDS011;63211;48.548;2.704;2022-10-31T13:52:21;3.40;;;1.67;;
74679;SDS011;63211;48.548;2.704;2022-10-31T13:54:51;3.60;;;2.03;;
74679;SDS011;63211;48.548;2.704;2022-10-31T13:57:31;3.05;;;1.88;;
74679;SDS011;63211;48.548;2.704;2022-10-31T14:00:05;3.25;;;1.98;;
74679;SDS011;63211;48.548;2.704;2022-10-31T14:02:35;3.63;;;2.05;;
74679;SDS011;63211;48.548;2.704;2022-10-31T14:05:03;4.00;;;1.98;;
74679;SDS011;63211;48.548;2.704;2022-10-31T14:07:32;6.70;;;2.10;;
74679;SDS011;63211;48.548;2.704;2022-10-31T14:10:02;4.80;;;2.03;;
74679;SDS011;63211;48.548;2.704;2022-10-31T14:12:31;6.40;;;2.38;;
74679;SDS011;63211;48.548;2.704;2022-10-31T14:15:04;3.85;;;2.47;;
74679;SDS011;63211;48.548;2.704;2022-10-31T14:17:44;3.70;;;2.20;;
74679;SDS011;63211;48.548;2.704;2022-10-31T14:20:22;5.05;;;2.08;;
74679;SDS011;63211;48.548;2.704;2022-10-31T14:22:51;3.35;;;1.88;;
74679;SDS011;63211;48.548;2.704;2022-10-31T14:25:26;2.75;;;1.67;;
74679;SDS011;63211;48.548;2.704;2022-10-31T14:27:58;3.67;;;2.00;;
74679;SDS011;63211;48.548;2.704;2022-10-31T14:30:26;4.65;;;2.50;;
74679;SDS011;63211;48.548;2.704;2022-10-31T14:33:00;3.22;;;2.03;;
74679;SDS011;63211;48.548;2.704;2022-10-31T14:41:21;4.05;;;1.83;;
74679;SDS011;63211;48.548;2.704;2022-10-31T14:44:15;4.35;;;2.25;;
74679;SDS011;63211;48.548;2.704;2022-10-31T14:46:57;5.03;;;2.35;;
74679;SDS011;63211;48.548;2.704;2022-10-31T14:49:38;5.25;;;2.53;;
74679;SDS011;63211;48.548;2.704;2022-10-31T14:52:17;3.58;;;2.00;;
74679;SDS011;63211;48.548;2.704;2022-10-31T14:54:47;3.55;;;2.20;;
74679;SDS011;63211;48.548;2.704;2022-10-31T14:57:20;5.05;;;2.30;;
74679;SDS011;63211;48.548;2.704;2022-10-31T14:59:50;5.50;;;2.22;;
74679;SDS011;63211;48.548;2.704;2022-10-31T15:02:22;5.00;;;2.58;;
74679;SDS011;63211;48.548;2.704;2022-10-31T15:04:52;4.10;;;2.20;;
74679;SDS011;63211;48.548;2.704;2022-10-31T15:07:21;5.35;;;2.10;;
74679;SDS011;63211;48.548;2.704;2022-10-31T15:09:55;5.63;;;2.85;;
74679;SDS011;63211;48.548;2.704;2022-10-31T15:12:25;3.63;;;2.33;;
74679;SDS011;63211;48.548;2.704;2022-10-31T15:14:53;3.60;;;2.50;;
74679;SDS011;63211;48.548;2.704;2022-10-31T15:17:21;4.22;;;2.38;;
74679;SDS011;63211;48.548;2.704;2022-10-31T15:19:48;3.30;;;2.17;;
74679;SDS011;63211;48.548;2.704;2022-10-31T15:22:15;4.88;;;2.35;;
74679;SDS011;63211;48.548;2.704;2022-10-31T15:24:43;5.43;;;2.85;;
74679;SDS011;63211;48.548;2.704;2022-10-31T15:27:11;5.80;;;2.95;;
74679;SDS011;63211;48.548;2.704;2022-10-31T15:29:51;6.80;;;2.63;;